createdAt,value
2022-12-16T00:01:35.048Z,3.13
2022-12-16T00:04:01.877Z,3.08
2022-12-16T00:06:30.707Z,3.07
2022-12-16T00:08:57.346Z,3.06
2022-12-16T00:11:24.135Z,3.03
2022-12-16T00:13:51.164Z,3.02
2022-12-16T00:16:19.704Z,3.00
2022-12-16T00:18:46.794Z,2.99
2022-12-16T00:21:14.198Z,2.98
2022-12-16T00:23:42.014Z,2.97
2022-12-16T00:26:09.094Z,2.97
2022-12-16T00:28:35.881Z,2.98
2022-12-16T00:31:02.570Z,2.98
2022-12-16T00:33:29.421Z,2.98
2022-12-16T00:35:56.544Z,2.96
2022-12-16T00:38:24.068Z,2.96
2022-12-16T00:40:52.132Z,2.95
2022-12-16T00:43:20.582Z,2.95
2022-12-16T00:45:47.794Z,2.96
2022-12-16T00:48:14.523Z,2.97
2022-12-16T00:50:41.220Z,2.95
2022-12-16T00:53:08.340Z,2.95
2022-12-16T00:55:35.016Z,2.95
2022-12-16T00:58:01.708Z,2.97
2022-12-16T01:00:28.309Z,2.94
2022-12-16T01:02:55.047Z,2.93
2022-12-16T01:05:26.918Z,2.93
2022-12-16T01:07:54.707Z,2.91
2022-12-16T01:10:21.907Z,2.89
2022-12-16T01:12:48.523Z,2.89
2022-12-16T01:15:15.303Z,2.88
2022-12-16T01:17:43.077Z,2.88
2022-12-16T01:20:10.110Z,2.87
2022-12-16T01:22:36.865Z,2.88
2022-12-16T01:25:04.303Z,2.87
2022-12-16T01:27:31.150Z,2.87
2022-12-16T01:29:57.951Z,2.86
2022-12-16T01:32:24.605Z,2.87
2022-12-16T01:34:55.349Z,2.87
2022-12-16T01:37:23.089Z,2.87
2022-12-16T01:39:50.782Z,2.88
2022-12-16T01:42:19.940Z,2.89
2022-12-16T01:44:48.894Z,2.91
2022-12-16T01:47:21.034Z,2.91
2022-12-16T01:49:52.557Z,2.90
2022-12-16T01:52:26.329Z,2.90
2022-12-16T01:54:56.785Z,2.90
2022-12-16T01:57:27.304Z,2.89
2022-12-16T01:59:55.549Z,2.88
2022-12-16T02:02:23.306Z,2.86
2022-12-16T02:05:22.629Z,2.85
2022-12-16T02:08:12.373Z,2.86
2022-12-16T02:10:44.742Z,2.85
2022-12-16T02:13:35.943Z,2.86
2022-12-16T02:16:05.850Z,2.85
2022-12-16T02:18:38.702Z,2.84
2022-12-16T02:21:13.803Z,2.82
2022-12-16T02:23:59.001Z,2.82
2022-12-16T02:26:25.642Z,2.81
2022-12-16T02:29:04.552Z,2.81
2022-12-16T02:31:37.262Z,2.80
2022-12-16T02:34:03.872Z,2.79
2022-12-16T02:36:43.556Z,2.81
2022-12-16T02:39:21.981Z,2.77
2022-12-16T02:41:54.731Z,2.76
2022-12-16T02:44:26.469Z,2.74
2022-12-16T02:46:55.515Z,2.69
2022-12-16T02:49:22.337Z,2.65
2022-12-16T02:51:49.499Z,2.62
2022-12-16T02:54:17.697Z,2.58
2022-12-16T02:56:47.106Z,2.59
2022-12-16T02:59:19.096Z,2.56
2022-12-16T03:01:49.317Z,2.55
2022-12-16T03:04:19.569Z,2.53
2022-12-16T03:06:49.408Z,2.53
2022-12-16T03:09:17.731Z,2.55
2022-12-16T03:11:45.708Z,2.55
2022-12-16T03:14:14.788Z,2.57
2022-12-16T03:16:42.220Z,2.56
2022-12-16T03:19:11.885Z,2.57
2022-12-16T03:21:42.690Z,2.56
2022-12-16T03:24:10.964Z,2.55
2022-12-16T03:26:43.695Z,2.57
2022-12-16T03:29:19.730Z,2.56
2022-12-16T03:31:52.495Z,2.59
2022-12-16T03:34:22.057Z,2.60
2022-12-16T03:36:51.723Z,2.59
2022-12-16T03:39:20.570Z,2.57
2022-12-16T03:41:49.826Z,2.57
2022-12-16T03:44:17.492Z,2.54
2022-12-16T03:46:44.250Z,2.52
2022-12-16T03:49:10.954Z,2.50
2022-12-16T03:51:37.581Z,2.48
2022-12-16T03:54:04.331Z,2.50
2022-12-16T03:56:31.103Z,2.49
2022-12-16T03:58:57.742Z,2.49
2022-12-16T04:01:24.698Z,2.50
2022-12-16T04:03:51.533Z,2.51
2022-12-16T04:06:18.991Z,2.51
2022-12-16T04:08:48.798Z,2.49
2022-12-16T04:11:37.656Z,2.50
2022-12-16T04:14:22.717Z,2.50
2022-12-16T04:17:07.808Z,2.49
2022-12-16T04:19:55.239Z,2.48
2022-12-16T04:22:45.426Z,2.46
2022-12-16T04:25:21.112Z,2.47
2022-12-16T04:27:47.760Z,2.47
2022-12-16T04:30:21.022Z,2.47
2022-12-16T04:33:26.881Z,2.46
2022-12-16T04:36:11.948Z,2.46
2022-12-16T04:38:57.049Z,2.46
2022-12-16T04:41:42.083Z,2.47
2022-12-16T04:44:27.257Z,2.48
2022-12-16T04:47:12.155Z,2.47
2022-12-16T04:49:57.285Z,2.47
2022-12-16T04:52:42.810Z,2.44
2022-12-16T04:55:28.391Z,2.43
2022-12-16T04:58:14.677Z,2.42
2022-12-16T05:01:00.203Z,2.42
2022-12-16T05:03:45.344Z,2.42
2022-12-16T05:06:30.846Z,2.41
2022-12-16T05:09:15.984Z,2.38
2022-12-16T05:12:01.209Z,2.35
2022-12-16T05:14:46.143Z,2.35
2022-12-16T05:17:31.316Z,2.33
2022-12-16T05:20:16.893Z,2.33
2022-12-16T05:23:18.871Z,2.32
2022-12-16T05:26:03.905Z,2.29
2022-12-16T05:28:49.119Z,2.29
2022-12-16T05:31:34.389Z,2.27
2022-12-16T05:34:19.665Z,2.24
2022-12-16T05:37:04.920Z,2.18
2022-12-16T05:39:49.842Z,2.16
2022-12-16T05:42:34.885Z,2.13
2022-12-16T05:45:19.984Z,2.09
2022-12-16T05:48:07.687Z,2.09
2022-12-16T05:50:53.308Z,2.07
2022-12-16T05:53:40.943Z,2.10
2022-12-16T05:56:25.956Z,2.14
2022-12-16T05:59:11.146Z,2.15
2022-12-16T06:01:56.366Z,2.13
2022-12-16T06:04:41.539Z,2.10
2022-12-16T06:07:26.488Z,2.08
2022-12-16T06:10:11.578Z,2.09
2022-12-16T06:12:56.821Z,2.07
2022-12-16T06:15:41.894Z,2.10
2022-12-16T06:18:27.043Z,2.07
2022-12-16T06:21:12.036Z,2.06
2022-12-16T06:23:57.151Z,2.06
2022-12-16T06:26:42.315Z,2.04
2022-12-16T06:29:28.391Z,2.05
2022-12-16T06:32:13.641Z,2.07
2022-12-16T06:34:58.635Z,2.08
2022-12-16T06:37:44.864Z,2.09
2022-12-16T06:40:29.828Z,2.08
2022-12-16T06:43:15.064Z,2.06
2022-12-16T06:46:00.240Z,2.02
2022-12-16T06:48:45.283Z,1.99
2022-12-16T06:51:30.561Z,1.98
2022-12-16T06:54:15.895Z,1.97
2022-12-16T06:57:01.000Z,2.01
2022-12-16T06:59:56.819Z,2.00
2022-12-16T07:02:42.206Z,2.00
2022-12-16T07:05:29.010Z,2.01
2022-12-16T07:08:16.607Z,2.02
2022-12-16T07:11:15.624Z,2.01
2022-12-16T07:14:01.834Z,1.96
2022-12-16T07:16:47.066Z,1.96
2022-12-16T07:19:32.264Z,2.00
2022-12-16T07:22:20.584Z,1.99
2022-12-16T07:25:05.972Z,2.01
2022-12-16T07:27:52.501Z,1.99
2022-12-16T07:33:36.791Z,2.03
2022-12-16T07:36:22.587Z,2.04
2022-12-16T07:39:07.839Z,2.04
2022-12-16T07:41:53.492Z,2.04
2022-12-16T07:44:39.278Z,2.01
2022-12-16T07:47:24.585Z,1.98
2022-12-16T07:50:09.920Z,1.95
2022-12-16T07:52:55.708Z,1.96
2022-12-16T07:55:40.983Z,1.96
2022-12-16T07:58:26.026Z,2.00
2022-12-16T08:01:11.148Z,2.01
2022-12-16T08:03:56.325Z,1.98
2022-12-16T08:06:41.962Z,1.99
2022-12-16T08:09:27.170Z,1.99
2022-12-16T08:12:12.317Z,2.01
2022-12-16T08:14:58.986Z,2.00
2022-12-16T08:17:45.921Z,1.99
2022-12-16T08:20:31.696Z,1.95
2022-12-16T08:23:17.306Z,1.93
2022-12-16T08:26:02.869Z,1.92
2022-12-16T08:28:47.898Z,1.92
2022-12-16T08:31:33.220Z,1.90
2022-12-16T08:34:18.462Z,1.90
2022-12-16T08:37:03.527Z,1.89
2022-12-16T08:39:54.865Z,1.85
2022-12-16T08:42:53.893Z,1.82
2022-12-16T08:45:41.602Z,1.79
2022-12-16T08:48:26.643Z,2.05
2022-12-16T08:51:11.614Z,2.05
2022-12-16T08:53:56.709Z,2.02
2022-12-16T08:56:41.835Z,2.05
2022-12-16T08:59:26.885Z,2.06
2022-12-16T09:02:12.227Z,2.10
2022-12-16T09:04:57.756Z,2.08
2022-12-16T09:07:55.993Z,2.12
2022-12-16T09:10:42.835Z,2.15
2022-12-16T09:13:29.669Z,2.19
2022-12-16T09:16:19.222Z,2.23
2022-12-16T09:19:05.093Z,2.24
2022-12-16T09:21:50.122Z,2.30
2022-12-16T09:24:35.311Z,2.33
2022-12-16T09:27:20.283Z,2.33
2022-12-16T09:30:05.463Z,2.36
2022-12-16T09:32:50.496Z,2.38
2022-12-16T09:35:35.836Z,2.34
2022-12-16T09:38:20.812Z,2.33
2022-12-16T09:41:08.871Z,2.34
2022-12-16T09:44:03.982Z,2.30
2022-12-16T09:47:03.638Z,2.32
2022-12-16T09:50:03.141Z,2.33
2022-12-16T09:52:51.660Z,2.35
2022-12-16T09:55:49.649Z,2.35
2022-12-16T09:58:36.290Z,2.35
2022-12-16T10:01:21.432Z,2.36
2022-12-16T10:04:07.234Z,2.38
2022-12-16T10:07:05.589Z,2.38
2022-12-16T10:09:59.999Z,2.44
2022-12-16T10:12:51.156Z,2.50
2022-12-16T10:15:41.165Z,2.56
2022-12-16T10:18:36.525Z,2.55
2022-12-16T10:21:22.946Z,2.59
2022-12-16T10:24:15.167Z,2.64
2022-12-16T10:27:19.376Z,2.71
2022-12-16T10:30:04.944Z,2.77
2022-12-16T10:33:01.981Z,2.80
2022-12-16T10:35:55.648Z,2.84
2022-12-16T10:38:43.835Z,2.87
2022-12-16T10:41:31.467Z,2.90
2022-12-16T10:44:17.659Z,2.92
2022-12-16T10:47:05.095Z,2.89
2022-12-16T10:49:55.017Z,2.92
2022-12-16T10:52:40.371Z,2.95
2022-12-16T10:55:39.074Z,3.00
2022-12-16T10:58:24.338Z,3.07
2022-12-16T11:01:11.034Z,3.11
2022-12-16T11:03:57.701Z,3.14
2022-12-16T11:06:47.426Z,3.17
2022-12-16T11:09:49.023Z,3.19
2022-12-16T11:12:37.063Z,3.24
2022-12-16T11:15:41.360Z,3.27
2022-12-16T11:18:34.339Z,3.30
2022-12-16T11:21:29.569Z,3.28
2022-12-16T11:24:34.222Z,3.28
2022-12-16T11:27:21.309Z,3.33
2022-12-16T11:30:11.095Z,3.35
2022-12-16T11:32:57.274Z,3.40
2022-12-16T11:35:46.796Z,3.44
2022-12-16T11:38:51.228Z,3.45
2022-12-16T11:41:42.323Z,3.50
2022-12-16T11:44:32.011Z,3.53
2022-12-16T11:47:17.727Z,3.57
2022-12-16T11:50:03.478Z,3.60
2022-12-16T11:52:49.178Z,3.65
2022-12-16T11:56:04.982Z,3.68
2022-12-16T11:59:03.466Z,3.73
2022-12-16T12:02:07.383Z,3.76
2022-12-16T12:04:54.015Z,3.80
2022-12-16T12:07:48.814Z,3.86
2022-12-16T12:10:42.831Z,3.94
2022-12-16T12:13:46.036Z,4.00
2022-12-16T12:16:41.430Z,4.06
2022-12-16T12:19:33.523Z,4.12
2022-12-16T12:22:23.510Z,4.14
2022-12-16T12:25:08.611Z,4.23
2022-12-16T12:28:12.835Z,4.27
2022-12-16T12:31:18.316Z,4.26
2022-12-16T12:34:24.206Z,4.30
2022-12-16T12:37:13.221Z,4.37
2022-12-16T12:40:14.130Z,4.43
2022-12-16T12:43:11.039Z,4.47
2022-12-16T12:46:08.411Z,4.52
2022-12-16T12:48:57.496Z,4.49
2022-12-16T12:51:54.200Z,4.46
2022-12-16T12:54:48.344Z,4.46
2022-12-16T12:57:34.456Z,4.46
2022-12-16T13:00:24.578Z,4.52
2022-12-16T13:03:16.772Z,4.56
2022-12-16T13:06:02.277Z,4.58
2022-12-16T13:08:50.419Z,4.61
2022-12-16T13:11:35.712Z,4.63
2022-12-16T13:14:21.085Z,4.67
2022-12-16T13:17:20.293Z,4.68
2022-12-16T13:20:12.300Z,4.68
2022-12-16T13:23:17.427Z,4.71
2022-12-16T13:26:11.956Z,4.76
2022-12-16T13:28:58.579Z,4.78
2022-12-16T13:31:44.849Z,4.75
2022-12-16T13:34:33.059Z,4.73
2022-12-16T13:37:26.960Z,4.75
2022-12-16T13:40:33.546Z,4.77
2022-12-16T13:43:23.530Z,4.77
2022-12-16T13:46:18.734Z,4.78
2022-12-16T13:49:04.250Z,4.78
2022-12-16T13:51:59.950Z,4.84
2022-12-16T13:55:03.960Z,4.85
2022-12-16T13:57:51.298Z,4.87
2022-12-16T14:00:38.189Z,4.89
2022-12-16T14:03:28.935Z,4.88
2022-12-16T14:06:14.454Z,4.87
2022-12-16T14:09:22.917Z,4.85
2022-12-16T14:12:20.594Z,4.82
2022-12-16T14:15:14.114Z,4.84
2022-12-16T14:18:10.062Z,4.85
2022-12-16T14:21:05.195Z,4.88
2022-12-16T14:23:58.392Z,4.88
2022-12-16T14:26:45.974Z,4.88
2022-12-16T14:29:40.335Z,4.86
2022-12-16T14:32:40.856Z,4.83
2022-12-16T14:35:31.504Z,4.81
2022-12-16T14:38:16.664Z,4.81
2022-12-16T14:41:01.823Z,4.80
2022-12-16T14:43:46.891Z,4.79
2022-12-16T14:46:47.202Z,4.78
2022-12-16T14:49:40.509Z,4.77
2022-12-16T14:52:42.454Z,4.79
2022-12-16T14:55:33.748Z,4.80
2022-12-16T14:58:38.617Z,4.79
2022-12-16T15:01:34.259Z,4.78
2022-12-16T15:04:22.049Z,4.76
2022-12-16T15:07:09.140Z,4.74
2022-12-16T15:09:58.420Z,4.77
2022-12-16T15:12:46.717Z,4.75
2022-12-16T15:15:51.000Z,4.75
2022-12-16T15:18:57.359Z,4.70
2022-12-16T15:21:42.845Z,4.66
2022-12-16T15:24:29.222Z,4.63
2022-12-16T15:27:41.524Z,4.61
2022-12-16T15:30:45.748Z,4.57
2022-12-16T15:33:26.351Z,4.53
2022-12-16T15:36:11.724Z,4.51
2022-12-16T15:38:59.176Z,4.47
2022-12-16T15:41:51.915Z,4.46
2022-12-16T15:44:41.597Z,4.44
2022-12-16T15:47:49.924Z,4.41
2022-12-16T15:50:37.032Z,4.42
2022-12-16T15:53:41.195Z,4.42
2022-12-16T15:56:34.825Z,4.42
2022-12-16T15:59:33.156Z,4.42
2022-12-16T16:02:24.344Z,4.42
2022-12-16T16:05:12.412Z,4.40
2022-12-16T16:08:03.996Z,4.36
2022-12-16T16:10:50.759Z,4.31
2022-12-16T16:13:36.300Z,4.26
2022-12-16T16:16:22.131Z,4.22
2022-12-16T16:19:07.535Z,4.20
2022-12-16T16:21:52.727Z,4.22
2022-12-16T16:24:37.958Z,4.18
2022-12-16T16:27:27.971Z,4.14
2022-12-16T16:30:13.062Z,4.10
2022-12-16T16:32:58.250Z,4.07
2022-12-16T16:35:43.367Z,4.06
2022-12-16T16:38:29.870Z,4.04
2022-12-16T16:41:15.529Z,4.01
2022-12-16T16:44:01.003Z,3.99
2022-12-16T16:46:49.729Z,3.97
2022-12-16T16:49:39.444Z,3.95
2022-12-16T16:52:29.105Z,3.94
2022-12-16T16:55:14.068Z,3.89
2022-12-16T16:58:01.472Z,3.85
2022-12-16T17:00:46.646Z,3.81
2022-12-16T17:03:32.702Z,3.78
2022-12-16T17:06:18.811Z,3.76
2022-12-16T17:09:03.903Z,3.76
2022-12-16T17:11:49.671Z,3.80
2022-12-16T17:14:36.215Z,3.81
2022-12-16T17:17:21.739Z,3.84
2022-12-16T17:20:23.719Z,3.84
2022-12-16T17:23:08.769Z,3.81
2022-12-16T17:25:55.636Z,3.79
2022-12-16T17:28:41.825Z,3.79
2022-12-16T17:31:27.491Z,3.78
2022-12-16T17:34:12.555Z,3.75
2022-12-16T17:36:57.545Z,3.71
2022-12-16T17:39:42.680Z,3.68
2022-12-16T17:42:27.895Z,3.66
2022-12-16T17:45:32.784Z,3.64
2022-12-16T17:48:18.063Z,3.64
2022-12-16T17:51:03.606Z,3.65
2022-12-16T17:53:55.703Z,3.68
2022-12-16T17:56:43.983Z,3.68
2022-12-16T17:59:29.081Z,3.68
2022-12-16T18:02:14.309Z,3.68
2022-12-16T18:04:59.540Z,3.65
2022-12-16T18:07:45.155Z,3.67
2022-12-16T18:10:30.193Z,3.64
2022-12-16T18:13:15.244Z,3.59
2022-12-16T18:16:00.366Z,3.60
2022-12-16T18:18:46.445Z,3.60
2022-12-16T18:21:32.706Z,3.62
2022-12-16T18:24:17.734Z,3.60
2022-12-16T18:27:02.880Z,3.59
2022-12-16T18:29:47.889Z,3.61
2022-12-16T18:32:35.392Z,3.61
2022-12-16T18:35:21.030Z,3.62
2022-12-16T18:38:06.056Z,3.61
2022-12-16T18:40:51.207Z,3.61
2022-12-16T18:43:36.469Z,3.61
2022-12-16T18:46:22.009Z,3.61
2022-12-16T18:49:07.145Z,3.59
2022-12-16T18:51:52.325Z,3.57
2022-12-16T18:54:37.386Z,3.52
2022-12-16T18:57:22.433Z,3.50
2022-12-16T19:00:07.635Z,3.52
2022-12-16T19:02:54.320Z,3.53
2022-12-16T19:05:39.599Z,3.55
2022-12-16T19:08:24.751Z,3.51
2022-12-16T19:11:14.342Z,3.49
2022-12-16T19:13:59.818Z,3.47
2022-12-16T19:16:45.012Z,3.45
2022-12-16T19:19:30.096Z,3.43
2022-12-16T19:22:15.202Z,3.40
2022-12-16T19:25:00.293Z,3.37
2022-12-16T19:27:45.377Z,3.37
2022-12-16T19:30:30.483Z,3.35
2022-12-16T19:33:15.430Z,3.38
2022-12-16T19:36:00.661Z,3.39
2022-12-16T19:38:45.669Z,3.39
2022-12-16T19:41:34.363Z,3.36
2022-12-16T19:44:19.956Z,3.34
2022-12-16T19:47:05.205Z,3.35
2022-12-16T19:49:50.343Z,3.31
2022-12-16T19:52:35.313Z,3.30
2022-12-16T19:55:20.461Z,3.32
2022-12-16T19:58:05.456Z,3.34
2022-12-16T20:00:50.665Z,3.34
2022-12-16T20:03:37.577Z,3.34
2022-12-16T20:06:26.156Z,3.35
2022-12-16T20:09:12.300Z,3.31
2022-12-16T20:11:57.538Z,3.29
2022-12-16T20:14:43.008Z,3.27
2022-12-16T20:17:28.647Z,3.28
2022-12-16T20:20:14.307Z,3.26
2022-12-16T20:22:59.375Z,3.26
2022-12-16T20:25:45.030Z,3.25
2022-12-16T20:28:30.716Z,3.23
2022-12-16T20:31:19.942Z,3.22
2022-12-16T20:34:05.120Z,3.21
2022-12-16T20:36:50.344Z,3.21
2022-12-16T20:39:35.609Z,3.21
2022-12-16T20:42:20.687Z,3.23
2022-12-16T20:45:05.980Z,3.23
2022-12-16T20:47:51.062Z,3.21
2022-12-16T20:50:36.890Z,3.15
2022-12-16T20:53:22.059Z,3.14
2022-12-16T20:56:07.195Z,3.12
2022-12-16T20:58:56.133Z,3.09
2022-12-16T21:01:47.965Z,3.06
2022-12-16T21:04:46.735Z,3.05
2022-12-16T21:07:31.840Z,3.04
2022-12-16T21:10:16.937Z,3.04
2022-12-16T21:13:06.679Z,3.04
2022-12-16T21:15:52.062Z,3.04
2022-12-16T21:18:37.245Z,3.00
2022-12-16T21:21:22.311Z,2.98
2022-12-16T21:24:07.380Z,2.99
2022-12-16T21:26:52.393Z,2.96
2022-12-16T21:29:38.892Z,2.95
2022-12-16T21:32:24.152Z,2.96
2022-12-16T21:35:09.251Z,2.97
2022-12-16T21:38:01.016Z,2.94
2022-12-16T21:40:46.382Z,2.94
2022-12-16T21:43:33.888Z,2.95
2022-12-16T21:46:19.162Z,2.92
2022-12-16T21:49:04.375Z,2.89
2022-12-16T21:51:49.422Z,2.88
2022-12-16T21:54:34.725Z,2.85
2022-12-16T21:57:19.814Z,2.82
2022-12-16T22:00:04.897Z,2.81
2022-12-16T22:02:49.950Z,2.84
2022-12-16T22:05:35.109Z,2.83
2022-12-16T22:08:29.457Z,2.80
2022-12-16T22:11:15.008Z,2.80
2022-12-16T22:13:59.977Z,2.80
2022-12-16T22:16:45.191Z,2.80
2022-12-16T22:19:30.343Z,2.81
2022-12-16T22:22:15.389Z,2.81
2022-12-16T22:25:01.051Z,2.78
2022-12-16T22:27:51.673Z,2.77
2022-12-16T22:30:36.889Z,2.74
2022-12-16T22:33:22.060Z,2.72
2022-12-16T22:36:07.155Z,2.71
2022-12-16T22:38:52.796Z,2.68
2022-12-16T22:41:38.425Z,2.68
2022-12-16T22:44:23.421Z,2.68
2022-12-16T22:47:08.512Z,2.68
2022-12-16T22:49:55.961Z,2.71
2022-12-16T22:52:41.510Z,2.67
2022-12-16T22:55:27.089Z,2.65
2022-12-16T22:58:12.296Z,2.64
2022-12-16T23:00:58.301Z,2.65
2022-12-16T23:03:44.213Z,2.64
2022-12-16T23:06:29.961Z,2.67
2022-12-16T23:09:15.155Z,2.68
2022-12-16T23:12:00.263Z,2.70
2022-12-16T23:14:45.986Z,2.69
2022-12-16T23:17:31.498Z,2.70
2022-12-16T23:20:17.189Z,2.71
2022-12-16T23:23:02.294Z,2.73
2022-12-16T23:25:47.875Z,2.70
2022-12-16T23:28:33.065Z,2.71
2022-12-16T23:31:17.990Z,2.71
2022-12-16T23:34:03.272Z,2.70
2022-12-16T23:36:48.386Z,2.67
2022-12-16T23:39:33.612Z,2.61
2022-12-16T23:42:18.880Z,2.61
2022-12-16T23:45:04.012Z,2.63
2022-12-16T23:47:49.221Z,2.61
2022-12-16T23:50:34.201Z,2.58
2022-12-16T23:53:26.326Z,2.57
2022-12-16T23:56:18.483Z,2.52
2022-12-16T23:59:05.605Z,2.49
